Historyczne dane pomiarowe

Dodano dane terminowe – wersja testowa.

Dane z okresu 1951-2019

Wersja bazy: 1.34 [2019-03-16, lista zmian], aktualizacja planowana na 2019-04-15

Dane meteo z obszaru Polski uzyskane na podstawie danych udostępnionych przez Instytut Meteorologii i Gospodarki Wodnej – Państwowy Instytut Badawczy.

 

Wybierz Datę:    

       

TemperaturaWilgotnośćWiatrCiśnienieOpadyŚniegCzas trwania zjawisk
 Stacja t tx tn tng RH VA  wxwx mslp ppp RRR   cm mm wxwxwxwxwxwxwx
1984-06-13 14.3 21.3 3.3 3.2 63.0- 6.3 1.3---- 0.1------------
1984-06-14 17.8 23.0 13.3 12.8 74.3- 7.3 2.0---- 15.5------------
1984-06-15 13.1 16.1 10.7 9.6 80.3- 7.3 4.0---- 2.3------------
1984-06-16 12.0 16.5 10.4 9.6 89.8- 8.0 4.0---- 4.5------------
1984-06-17 12.8 17.5 11.0 10.0 93.8- 6.7 1.3---- 16.2------------
1984-06-18 15.5 21.4 7.5 6.6 82.3- 4.0 1.7---- 0.0------------
1984-06-19 16.4 22.5 9.1 7.3 80.0- 4.7 2.0---- 0.0------------
1984-06-20 18.9 25.3 11.5 8.1 71.3- 3.7 1.7---- 0.0------------
1984-06-21 18.8 26.0 11.4 9.4 89.0- 5.3 2.3---- 4.8------------
1984-06-22 17.3 21.2 15.3 12.5 91.8- 6.7 3.0---- 1.5------------
1984-06-23 15.1 21.0 11.4 11.4 80.0- 5.7 2.7---- 3.3------------
1984-06-24 12.5 16.8 7.5 4.4 71.3- 5.0 3.3---- 0.8------------
1984-06-25 11.4 16.0 7.5 6.1 59.5- 5.7 3.7---- 3.8------------
1984-06-26 10.5 14.6 8.9 8.3 86.8- 7.0 4.0---- 1.8------------
1984-06-27 14.1 18.6 8.4 6.3 71.8- 6.3 2.3---- 0.0------------
1984-06-28 16.6 23.2 10.4 7.3 79.5- 6.0 1.7---- 9.9------------
1984-06-29 13.3 18.4 10.9 9.4 90.0- 6.3 2.7---- 2.8------------
1984-06-30 12.3 18.1 7.5 5.3 72.5- 5.3 2.3---- 0.0------------
1984-07-01 13.0 18.0 8.5 6.3 67.8- 5.7 3.0---- 0.0------------
1984-07-02 14.5 21.0 7.0 4.9 77.5- 6.7 2.0---- 5.0------------
1984-07-03 11.8 16.5 9.9 7.1 89.0- 6.3 1.3---- 22.0------------
1984-07-04 10.3 13.1 8.4 8.1 90.0- 6.3 2.7---- 1.0------------
1984-07-05 11.3 14.4 9.9 10.0 86.0- 6.3 2.0---- 0.5------------
1984-07-06 11.2 15.1 9.9 9.0 85.0- 6.3 2.3---- 4.5------------
1984-07-07 12.0 18.0 6.0 4.2 76.8- 5.7 1.0---- 0.0------------
1984-07-08 16.0 22.0 5.5 3.4 67.3- 3.3 1.3---- 0.0------------
1984-07-09 18.6 25.0 10.3 9.0 70.3- 4.7 1.3---- 0.0------------
1984-07-10 21.4 29.0 9.9 7.9 68.0- 0.3 1.3---- 0.0------------
1984-07-11 24.4 33.0 14.0 12.0 65.3- 2.0 1.3---- 0.0------------
1984-07-12 27.0 31.5 24.2 16.1 62.8- 1.3 1.3---- 53.5------------
252.2 ms

 

Źródłem pochodzenia danych jest Instytut Meteorologii i Gospodarki Wodnej – Państwowy Instytut Badawczy. Dane Instytutu Meteorologii i Gospodarki Wodnej – Państwowego Instytutu Badawczego zostały przetworzone.

Dane źródłowe można odnaleźć na stronie https://dane.imgw.pl